createdAt,value
2018-07-31T00:00:12.157Z,7.20
2018-07-31T00:02:41.586Z,6.40
2018-07-31T00:05:11.024Z,7.00
2018-07-31T00:07:40.401Z,6.83
2018-07-31T00:10:09.871Z,7.80
2018-07-31T00:12:39.254Z,7.57
2018-07-31T00:15:11.425Z,7.20
2018-07-31T00:17:41.018Z,6.73
2018-07-31T00:20:10.420Z,7.10
2018-07-31T00:22:39.781Z,6.70
2018-07-31T00:25:09.141Z,7.87
2018-07-31T00:27:38.522Z,7.20
2018-07-31T00:30:09.598Z,5.70
2018-07-31T00:32:38.961Z,6.20
2018-07-31T00:35:08.381Z,6.90
2018-07-31T00:37:37.796Z,6.73
2018-07-31T00:40:07.165Z,6.83
2018-07-31T00:42:36.589Z,6.47
2018-07-31T00:45:06.600Z,7.40
2018-07-31T00:47:35.991Z,6.30
2018-07-31T00:50:05.421Z,6.30
2018-07-31T00:52:34.794Z,6.30
2018-07-31T00:55:04.649Z,6.80
2018-07-31T00:57:34.018Z,6.30
2018-07-31T01:00:03.879Z,6.57
2018-07-31T01:02:33.773Z,8.60
2018-07-31T01:05:03.281Z,6.30
2018-07-31T01:07:32.630Z,6.57
2018-07-31T01:10:01.999Z,6.30
2018-07-31T01:12:31.357Z,6.70
2018-07-31T01:15:00.700Z,7.70
2018-07-31T01:17:30.507Z,6.50
2018-07-31T01:19:59.890Z,6.50
2018-07-31T01:22:29.280Z,5.87
2018-07-31T01:24:58.741Z,6.63
2018-07-31T01:27:28.537Z,6.20
2018-07-31T01:29:58.155Z,6.50
2018-07-31T01:32:27.526Z,6.67
2018-07-31T01:34:56.998Z,6.20
2018-07-31T01:37:26.349Z,5.63
2018-07-31T01:39:55.869Z,6.00
2018-07-31T01:42:25.270Z,6.47
2018-07-31T01:44:54.657Z,6.67
2018-07-31T01:47:24.301Z,5.93
2018-07-31T01:49:53.469Z,6.13
2018-07-31T01:52:22.797Z,5.83
2018-07-31T01:54:52.012Z,4.97
2018-07-31T01:57:21.338Z,5.97
2018-07-31T01:59:50.755Z,5.33
2018-07-31T02:02:20.173Z,5.40
2018-07-31T02:04:49.641Z,5.70
2018-07-31T02:07:19.052Z,5.10
2018-07-31T02:09:49.450Z,4.90
2018-07-31T02:12:18.902Z,5.40
2018-07-31T02:14:48.303Z,5.73
2018-07-31T02:17:18.058Z,5.23
2018-07-31T02:19:47.466Z,5.40
2018-07-31T02:22:16.850Z,5.07
2018-07-31T02:24:46.238Z,5.07
2018-07-31T02:27:15.590Z,4.50
2018-07-31T02:29:50.297Z,5.93
2018-07-31T02:32:19.658Z,4.67
2018-07-31T02:34:49.160Z,6.00
2018-07-31T02:37:18.927Z,4.90
2018-07-31T02:39:48.342Z,5.70
2018-07-31T02:42:17.650Z,5.73
2018-07-31T02:44:47.146Z,5.93
2018-07-31T02:47:16.495Z,5.13
2018-07-31T02:49:45.958Z,5.70
2018-07-31T02:52:15.432Z,5.93
2018-07-31T02:54:44.778Z,5.17
2018-07-31T02:57:14.221Z,4.43
2018-07-31T02:59:43.604Z,5.57
2018-07-31T03:02:12.934Z,5.10
2018-07-31T03:04:42.314Z,5.30
2018-07-31T03:07:11.710Z,5.07
2018-07-31T03:09:42.087Z,5.20
2018-07-31T03:12:11.497Z,4.90
2018-07-31T03:14:40.586Z,5.17
2018-07-31T03:17:11.023Z,5.10
2018-07-31T03:19:40.426Z,4.50
2018-07-31T03:22:09.835Z,5.00
2018-07-31T03:24:39.222Z,5.13
2018-07-31T03:27:09.240Z,5.90
2018-07-31T03:29:38.610Z,5.57
2018-07-31T03:32:07.966Z,5.10
2018-07-31T03:34:37.125Z,5.50
2018-07-31T03:37:06.496Z,4.80
2018-07-31T03:39:36.178Z,5.00
2018-07-31T03:42:05.533Z,5.43
2018-07-31T03:44:34.929Z,5.53
2018-07-31T03:47:04.435Z,5.70
2018-07-31T03:49:33.878Z,5.43
2018-07-31T03:52:03.394Z,4.43
2018-07-31T03:54:32.737Z,5.23
2018-07-31T03:57:02.181Z,5.20
2018-07-31T03:59:31.909Z,5.10
2018-07-31T04:02:01.313Z,5.30
2018-07-31T04:04:30.674Z,5.40
2018-07-31T04:07:00.149Z,5.30
2018-07-31T04:09:29.622Z,5.37
2018-07-31T04:11:59.632Z,4.80
2018-07-31T04:14:29.058Z,5.17
2018-07-31T04:16:58.561Z,5.67
2018-07-31T04:19:27.918Z,5.17
2018-07-31T04:21:57.044Z,5.17
2018-07-31T04:24:26.672Z,4.80
2018-07-31T04:26:56.046Z,5.10
2018-07-31T04:29:25.393Z,4.87
2018-07-31T04:31:54.986Z,4.37
2018-07-31T04:34:24.342Z,4.80
2018-07-31T04:36:53.783Z,5.20
2018-07-31T04:39:23.188Z,4.80
2018-07-31T04:41:53.527Z,5.00
2018-07-31T04:44:22.937Z,5.00
2018-07-31T04:46:52.954Z,5.20
2018-07-31T04:49:22.158Z,5.00
2018-07-31T04:51:52.154Z,5.07
2018-07-31T04:54:21.642Z,5.20
2018-07-31T04:56:51.121Z,5.13
2018-07-31T04:59:20.459Z,5.20
2018-07-31T05:01:50.707Z,5.03
2018-07-31T05:04:20.115Z,4.63
2018-07-31T05:06:49.570Z,5.07
2018-07-31T05:09:19.001Z,4.77
2018-07-31T05:11:48.363Z,5.20
2018-07-31T05:14:17.668Z,5.20
2018-07-31T05:16:47.086Z,5.50
2018-07-31T05:19:16.526Z,5.70
2018-07-31T05:21:46.535Z,5.20
2018-07-31T05:24:16.013Z,5.40
2018-07-31T05:26:45.433Z,5.40
2018-07-31T05:29:15.174Z,5.20
2018-07-31T05:31:44.750Z,5.50
2018-07-31T05:34:14.150Z,5.37
2018-07-31T05:36:43.528Z,5.77
2018-07-31T05:39:13.495Z,5.90
2018-07-31T05:41:42.915Z,4.70
2018-07-31T05:44:12.271Z,5.23
2018-07-31T05:46:41.939Z,5.90
2018-07-31T05:49:11.109Z,5.77
2018-07-31T05:51:40.478Z,5.37
2018-07-31T05:54:09.934Z,5.20
2018-07-31T05:56:39.442Z,5.63
2018-07-31T05:59:08.799Z,4.90
2018-07-31T06:01:38.298Z,5.43
2018-07-31T06:04:07.710Z,5.87
2018-07-31T06:06:37.105Z,5.47
2018-07-31T06:09:09.397Z,6.07
2018-07-31T06:11:39.358Z,5.77
2018-07-31T06:14:09.278Z,5.40
2018-07-31T06:16:39.186Z,5.60
2018-07-31T06:19:08.646Z,5.50
2018-07-31T06:21:38.045Z,4.90
2018-07-31T06:24:12.255Z,5.33
2018-07-31T06:26:42.024Z,4.73
2018-07-31T06:29:11.384Z,5.70
2018-07-31T06:31:40.805Z,5.63
2018-07-31T06:34:10.187Z,6.13
2018-07-31T06:36:39.585Z,5.57
2018-07-31T06:39:10.153Z,5.07
2018-07-31T06:41:39.781Z,6.00
2018-07-31T06:44:09.085Z,6.03
2018-07-31T06:46:38.578Z,5.20
2018-07-31T06:49:08.327Z,5.37
2018-07-31T06:51:37.762Z,6.17
2018-07-31T06:54:07.181Z,5.80
2018-07-31T06:56:36.826Z,5.47
2018-07-31T06:59:06.174Z,5.33
2018-07-31T07:01:35.857Z,5.37
2018-07-31T07:04:05.354Z,5.93
2018-07-31T07:06:35.307Z,5.73
2018-07-31T07:09:07.633Z,5.50
2018-07-31T07:11:37.137Z,5.60
2018-07-31T07:14:06.741Z,5.47
2018-07-31T07:16:36.187Z,6.07
2018-07-31T07:19:05.625Z,5.57
2018-07-31T07:21:35.913Z,5.97
2018-07-31T07:24:06.020Z,5.80
2018-07-31T07:26:35.790Z,6.47
2018-07-31T07:29:05.483Z,6.10
2018-07-31T07:31:34.870Z,6.00
2018-07-31T07:34:04.321Z,5.60
2018-07-31T07:36:33.769Z,5.90
2018-07-31T07:39:03.233Z,7.10
2018-07-31T07:41:33.306Z,6.10
2018-07-31T07:44:02.748Z,5.93
2018-07-31T07:46:32.127Z,6.23
2018-07-31T07:49:02.833Z,5.87
2018-07-31T07:51:32.472Z,6.37
2018-07-31T07:54:01.970Z,6.97
2018-07-31T07:56:31.271Z,5.70
2018-07-31T07:59:01.018Z,7.10
2018-07-31T08:01:30.442Z,6.20
2018-07-31T08:03:59.961Z,6.33
2018-07-31T08:06:29.446Z,6.40
2018-07-31T08:08:59.405Z,6.60
2018-07-31T08:11:28.910Z,6.87
2018-07-31T08:13:58.353Z,7.20
2018-07-31T08:16:27.822Z,6.27
2018-07-31T08:18:57.386Z,6.67
2018-07-31T08:21:26.770Z,6.70
2018-07-31T08:23:57.413Z,6.80
2018-07-31T08:26:26.771Z,6.47
2018-07-31T08:28:56.322Z,5.53
2018-07-31T08:31:25.718Z,6.00
2018-07-31T08:33:55.193Z,6.27
2018-07-31T08:36:24.655Z,6.13
2018-07-31T08:38:54.150Z,6.40
2018-07-31T08:41:23.563Z,6.60
2018-07-31T08:43:52.954Z,6.50
2018-07-31T08:46:22.330Z,6.40
2018-07-31T08:48:51.684Z,6.50
2018-07-31T08:51:21.257Z,6.57
2018-07-31T08:53:50.605Z,6.80
2018-07-31T08:56:20.002Z,6.00
2018-07-31T08:58:49.363Z,6.80
2018-07-31T09:01:18.807Z,6.53
2018-07-31T09:03:48.157Z,6.70
2018-07-31T09:06:17.560Z,6.17
2018-07-31T09:08:46.967Z,6.43
2018-07-31T09:11:16.359Z,6.40
2018-07-31T09:13:45.811Z,6.60
2018-07-31T09:16:15.135Z,6.43
2018-07-31T09:18:44.611Z,6.40
2018-07-31T09:21:14.118Z,6.40
2018-07-31T09:23:43.461Z,6.93
2018-07-31T09:26:13.006Z,6.53
2018-07-31T09:28:42.447Z,6.10
2018-07-31T09:31:14.194Z,5.83
2018-07-31T09:33:44.113Z,6.50
2018-07-31T09:36:13.325Z,6.47
2018-07-31T09:38:42.714Z,5.97
2018-07-31T09:41:12.461Z,6.20
2018-07-31T09:43:41.825Z,7.40
2018-07-31T09:46:11.254Z,6.60
2018-07-31T09:48:40.732Z,7.30
2018-07-31T09:51:10.018Z,5.90
2018-07-31T09:53:39.393Z,6.83
2018-07-31T09:56:08.806Z,6.50
2018-07-31T09:58:38.201Z,5.97
2018-07-31T10:01:13.005Z,6.97
2018-07-31T10:03:42.441Z,5.57
2018-07-31T10:06:11.857Z,5.57
2018-07-31T10:08:41.514Z,6.70
2018-07-31T10:11:11.918Z,6.50
2018-07-31T10:13:41.446Z,6.30
2018-07-31T10:16:11.557Z,6.40
2018-07-31T10:18:40.877Z,6.40
2018-07-31T10:21:10.339Z,6.50
2018-07-31T10:23:39.748Z,6.67
2018-07-31T10:26:09.262Z,6.20
2018-07-31T10:28:38.614Z,7.60
2018-07-31T10:31:08.255Z,6.20
2018-07-31T10:33:37.642Z,6.50
2018-07-31T10:36:07.112Z,6.70
2018-07-31T10:38:36.557Z,6.73
2018-07-31T10:41:06.010Z,7.70
2018-07-31T10:43:35.533Z,6.67
2018-07-31T10:46:04.648Z,6.17
2018-07-31T10:48:33.991Z,6.40
2018-07-31T10:51:03.982Z,6.30
2018-07-31T10:53:33.394Z,6.70
2018-07-31T10:56:03.130Z,6.43
2018-07-31T10:58:32.766Z,6.00
2018-07-31T11:01:02.078Z,5.83
2018-07-31T11:03:33.065Z,5.50
2018-07-31T11:06:02.471Z,5.37
2018-07-31T11:08:32.300Z,5.07
2018-07-31T11:11:01.699Z,4.70
2018-07-31T11:13:31.605Z,5.33
2018-07-31T11:16:00.998Z,4.80
2018-07-31T11:18:30.761Z,5.57
2018-07-31T11:21:00.173Z,5.13
2018-07-31T11:23:30.062Z,5.27
2018-07-31T11:25:59.425Z,6.00
2018-07-31T11:28:28.876Z,6.07
2018-07-31T11:30:59.090Z,5.90
2018-07-31T11:33:28.822Z,6.20
2018-07-31T11:35:58.326Z,5.93
2018-07-31T11:38:28.392Z,5.10
2018-07-31T11:40:58.070Z,6.20
2018-07-31T11:43:28.133Z,6.30
2018-07-31T11:45:58.658Z,5.77
2018-07-31T11:48:28.015Z,5.67
2018-07-31T11:50:57.477Z,6.60
2018-07-31T11:53:27.002Z,6.90
2018-07-31T11:55:56.346Z,6.33
2018-07-31T11:58:25.797Z,6.30
2018-07-31T12:00:55.202Z,6.30
2018-07-31T12:03:24.549Z,6.80
2018-07-31T12:05:54.279Z,6.10
2018-07-31T12:08:23.622Z,7.40
2018-07-31T12:10:53.542Z,7.23
2018-07-31T12:13:22.922Z,6.90
2018-07-31T12:15:52.265Z,6.50
2018-07-31T12:18:22.600Z,7.33
2018-07-31T12:20:51.982Z,6.77
2018-07-31T12:23:21.495Z,6.87
2018-07-31T12:25:51.035Z,7.07
2018-07-31T12:28:20.586Z,6.73
2018-07-31T12:30:50.225Z,6.70
2018-07-31T12:33:19.693Z,6.37
2018-07-31T12:35:49.157Z,6.53
2018-07-31T12:38:19.718Z,6.50
2018-07-31T12:40:49.046Z,6.27
2018-07-31T12:43:18.425Z,6.10
2018-07-31T12:45:47.865Z,5.53
2018-07-31T12:48:17.297Z,6.37
2018-07-31T12:50:46.453Z,6.63
2018-07-31T12:53:16.078Z,5.50
2018-07-31T12:55:45.453Z,6.27
2018-07-31T12:58:14.870Z,5.40
2018-07-31T13:00:44.289Z,5.20
2018-07-31T13:03:13.796Z,5.53
2018-07-31T13:05:43.155Z,6.90
2018-07-31T13:08:12.766Z,5.10
2018-07-31T13:10:42.157Z,6.53
2018-07-31T13:13:11.693Z,5.20
2018-07-31T13:15:41.262Z,6.53
2018-07-31T13:18:10.651Z,6.70
2018-07-31T13:20:40.351Z,5.73
2018-07-31T13:23:10.398Z,6.33
2018-07-31T13:25:39.851Z,6.43
2018-07-31T13:28:09.328Z,6.20
2018-07-31T13:30:39.069Z,6.20
2018-07-31T13:33:08.480Z,6.27
2018-07-31T13:35:37.926Z,5.93
2018-07-31T13:38:07.474Z,6.23
2018-07-31T13:40:36.917Z,5.33
2018-07-31T13:43:06.399Z,5.97
2018-07-31T13:45:35.812Z,5.87
2018-07-31T13:48:05.407Z,6.20
2018-07-31T13:50:34.966Z,6.00
2018-07-31T13:53:04.411Z,5.87
2018-07-31T13:55:33.990Z,6.13
2018-07-31T13:58:03.446Z,6.53
2018-07-31T14:00:32.854Z,5.40
2018-07-31T14:03:03.278Z,5.97
2018-07-31T14:05:32.725Z,5.90
2018-07-31T14:08:02.194Z,5.80
2018-07-31T14:10:31.603Z,6.43
2018-07-31T14:13:00.977Z,6.10
2018-07-31T14:15:30.376Z,6.47
2018-07-31T14:17:59.755Z,6.23
2018-07-31T14:20:29.176Z,5.50
2018-07-31T14:22:58.716Z,5.67
2018-07-31T14:25:28.098Z,4.53
2018-07-31T14:27:58.248Z,5.67
2018-07-31T14:30:28.004Z,5.70
2018-07-31T14:32:57.441Z,5.30
2018-07-31T14:35:26.837Z,5.70
2018-07-31T14:37:56.318Z,5.13
2018-07-31T14:40:25.730Z,4.63
2018-07-31T14:42:55.226Z,6.40
2018-07-31T14:45:24.556Z,5.90
2018-07-31T14:47:54.265Z,5.37
2018-07-31T14:50:23.710Z,6.47
2018-07-31T14:52:53.701Z,6.53
2018-07-31T14:55:23.118Z,5.95
2018-07-31T14:57:52.435Z,5.83
2018-07-31T15:00:22.145Z,4.85
2018-07-31T15:02:52.093Z,5.30
2018-07-31T15:05:21.598Z,5.78
2018-07-31T15:07:51.076Z,5.40
2018-07-31T15:10:20.631Z,6.50
2018-07-31T15:12:49.998Z,5.13
2018-07-31T15:15:19.553Z,5.77
2018-07-31T15:17:48.933Z,5.40
2018-07-31T15:20:18.398Z,4.83
2018-07-31T15:22:47.781Z,5.43
2018-07-31T15:25:17.809Z,5.70
2018-07-31T15:27:47.212Z,5.17
2018-07-31T15:30:16.609Z,4.83
2018-07-31T15:32:46.125Z,5.70
2018-07-31T15:35:15.525Z,5.07
2018-07-31T15:37:44.900Z,4.90
2018-07-31T15:40:14.008Z,5.63
2018-07-31T15:42:43.601Z,4.47
2018-07-31T15:45:13.014Z,5.50
2018-07-31T15:47:42.598Z,4.70
2018-07-31T15:50:12.037Z,5.30
2018-07-31T15:52:41.406Z,5.00
2018-07-31T15:55:10.883Z,5.37
2018-07-31T15:57:40.983Z,5.30
2018-07-31T16:00:12.061Z,4.80
2018-07-31T16:02:41.405Z,5.20
2018-07-31T16:05:10.810Z,4.90
2018-07-31T16:07:40.543Z,4.93
2018-07-31T16:10:10.274Z,4.93
2018-07-31T16:12:40.187Z,5.27
2018-07-31T16:15:09.704Z,5.30
2018-07-31T16:17:41.269Z,6.10
2018-07-31T16:20:10.795Z,5.23
2018-07-31T16:22:41.162Z,5.90
2018-07-31T16:25:10.866Z,5.10
2018-07-31T16:27:40.422Z,4.43
2018-07-31T16:30:09.748Z,4.67
2018-07-31T16:32:39.199Z,4.90
2018-07-31T16:35:08.663Z,5.47
2018-07-31T16:37:38.013Z,4.00
2018-07-31T16:40:07.642Z,4.93
2018-07-31T16:42:37.362Z,4.93
2018-07-31T16:45:07.327Z,4.20
2018-07-31T16:47:36.758Z,4.80
2018-07-31T16:50:06.487Z,3.57
2018-07-31T16:52:36.578Z,4.30
2018-07-31T16:55:06.098Z,3.87
2018-07-31T16:57:35.572Z,3.20
2018-07-31T17:00:06.190Z,3.70
2018-07-31T17:02:35.741Z,2.60
2018-07-31T17:05:05.416Z,2.87
2018-07-31T17:07:35.056Z,3.00
2018-07-31T17:10:05.806Z,3.50
2018-07-31T17:12:35.287Z,3.17
2018-07-31T17:15:05.134Z,2.77
2018-07-31T17:17:34.660Z,3.03
2018-07-31T17:20:04.149Z,2.07
2018-07-31T17:22:34.190Z,2.70
2018-07-31T17:25:03.686Z,2.97
2018-07-31T17:27:33.504Z,2.70
2018-07-31T17:30:03.419Z,3.00
2018-07-31T17:32:32.887Z,3.03
2018-07-31T17:35:02.356Z,2.90
2018-07-31T17:37:32.759Z,2.90
2018-07-31T17:40:02.177Z,2.40
2018-07-31T17:42:31.862Z,3.20
2018-07-31T17:45:01.255Z,2.63
2018-07-31T17:47:30.750Z,3.17
2018-07-31T17:50:00.198Z,2.90
2018-07-31T17:52:30.046Z,3.03
2018-07-31T17:54:59.461Z,2.50
2018-07-31T17:57:28.998Z,2.90
2018-07-31T17:59:59.026Z,3.13
2018-07-31T18:02:28.499Z,2.67
2018-07-31T18:04:58.085Z,2.53
2018-07-31T18:07:27.601Z,2.87
2018-07-31T18:09:58.141Z,2.60
2018-07-31T18:12:27.522Z,2.73
2018-07-31T18:14:57.316Z,2.47
2018-07-31T18:17:27.065Z,2.50
2018-07-31T18:19:57.124Z,2.37
2018-07-31T18:22:26.524Z,2.47
2018-07-31T18:24:55.994Z,2.17
2018-07-31T18:27:25.360Z,2.23
2018-07-31T18:29:55.058Z,2.53
2018-07-31T18:32:24.533Z,2.57
2018-07-31T18:34:54.948Z,2.53
2018-07-31T18:37:24.926Z,2.20
2018-07-31T18:39:54.476Z,2.50
2018-07-31T18:42:23.866Z,2.20
2018-07-31T18:44:53.233Z,2.50
2018-07-31T18:47:22.787Z,2.23
2018-07-31T18:49:52.607Z,1.73
2018-07-31T18:52:21.985Z,1.70
2018-07-31T18:54:51.506Z,1.60
2018-07-31T18:57:20.985Z,1.77
2018-07-31T18:59:50.390Z,1.53
2018-07-31T19:02:19.815Z,1.30
2018-07-31T19:04:49.285Z,1.90
2018-07-31T19:07:18.909Z,2.53
2018-07-31T19:09:48.541Z,2.20
2018-07-31T19:12:18.010Z,1.50
2018-07-31T19:14:47.458Z,1.70
2018-07-31T19:17:17.235Z,2.40
2018-07-31T19:19:46.615Z,1.50
2018-07-31T19:22:16.064Z,1.60
2018-07-31T19:24:45.437Z,2.20
2018-07-31T19:27:15.014Z,1.70
2018-07-31T19:29:44.510Z,1.67
2018-07-31T19:32:15.134Z,1.63
2018-07-31T19:34:44.540Z,1.90
2018-07-31T19:37:13.943Z,1.50
2018-07-31T19:39:43.434Z,1.60
2018-07-31T19:42:13.128Z,1.87
2018-07-31T19:44:42.471Z,1.47
2018-07-31T19:47:11.671Z,1.30
2018-07-31T19:49:40.966Z,2.10
2018-07-31T19:52:10.407Z,1.90
2018-07-31T19:54:39.767Z,1.43
2018-07-31T19:57:09.850Z,1.30
2018-07-31T19:59:39.393Z,2.67
2018-07-31T20:02:08.963Z,1.40
2018-07-31T20:04:38.397Z,1.80
2018-07-31T20:07:07.747Z,1.53
2018-07-31T20:09:37.324Z,1.63
2018-07-31T20:12:06.734Z,1.80
2018-07-31T20:14:36.222Z,1.90
2018-07-31T20:17:05.725Z,2.10
2018-07-31T20:19:35.127Z,1.90
2018-07-31T20:22:04.495Z,1.90
2018-07-31T20:24:33.927Z,1.90
2018-07-31T20:27:03.354Z,1.80
2018-07-31T20:29:32.710Z,1.57
2018-07-31T20:32:02.557Z,1.80
2018-07-31T20:34:32.030Z,1.60
2018-07-31T20:37:01.550Z,1.50
2018-07-31T20:39:31.009Z,2.57
2018-07-31T20:42:00.485Z,1.70
2018-07-31T20:44:31.214Z,1.50
2018-07-31T20:47:00.914Z,1.67
2018-07-31T20:49:31.071Z,1.87
2018-07-31T20:52:00.472Z,2.00
2018-07-31T20:54:29.838Z,1.50
2018-07-31T20:56:59.281Z,2.40
2018-07-31T20:59:29.078Z,1.50
2018-07-31T21:01:58.578Z,1.80
2018-07-31T21:05:57.678Z,2.20
2018-07-31T21:08:27.165Z,1.50
2018-07-31T21:10:57.178Z,2.10
2018-07-31T21:13:27.115Z,1.77
2018-07-31T21:15:57.221Z,1.77
2018-07-31T21:18:26.988Z,1.63
2018-07-31T21:20:55.607Z,2.17
2018-07-31T21:23:26.152Z,1.83
2018-07-31T21:25:55.888Z,1.57
2018-07-31T21:28:26.580Z,2.30
2018-07-31T21:30:56.133Z,2.03
2018-07-31T21:33:25.529Z,2.30
2018-07-31T21:35:55.115Z,2.30
2018-07-31T21:38:25.182Z,2.07
2018-07-31T21:40:54.654Z,1.87
2018-07-31T21:43:24.317Z,2.03
2018-07-31T21:45:53.649Z,2.67
2018-07-31T21:48:23.350Z,2.20
2018-07-31T21:50:53.906Z,2.20
2018-07-31T21:53:23.532Z,2.23
2018-07-31T21:55:53.058Z,2.53
2018-07-31T21:58:22.449Z,2.70
2018-07-31T22:00:57.202Z,2.53
2018-07-31T22:03:26.554Z,2.00
2018-07-31T22:05:55.755Z,2.63
2018-07-31T22:08:25.216Z,2.90
2018-07-31T22:10:54.642Z,2.50
2018-07-31T22:13:24.209Z,2.70
2018-07-31T22:15:53.726Z,2.10
2018-07-31T22:18:23.256Z,3.00
2018-07-31T22:20:53.294Z,2.90
2018-07-31T22:23:23.344Z,3.33
2018-07-31T22:25:52.955Z,2.30
2018-07-31T22:28:22.995Z,2.67
2018-07-31T22:30:52.514Z,3.03
2018-07-31T22:33:22.062Z,3.37
2018-07-31T22:35:51.149Z,2.83
2018-07-31T22:38:20.585Z,2.93
2018-07-31T22:40:50.161Z,2.73
2018-07-31T22:43:19.586Z,2.90
2018-07-31T22:45:49.026Z,2.83
2018-07-31T22:48:19.765Z,3.10
2018-07-31T22:50:49.089Z,3.17
2018-07-31T22:53:18.440Z,3.47
2018-07-31T22:55:47.968Z,3.10
2018-07-31T22:58:17.350Z,3.30
2018-07-31T23:00:46.973Z,3.00
2018-07-31T23:03:16.454Z,3.40
2018-07-31T23:05:45.813Z,3.50
2018-07-31T23:08:17.191Z,3.37
2018-07-31T23:10:47.291Z,3.53
2018-07-31T23:13:17.038Z,3.43
2018-07-31T23:15:46.157Z,2.87
2018-07-31T23:18:16.176Z,3.20
2018-07-31T23:20:45.690Z,3.13
2018-07-31T23:23:15.324Z,3.10
2018-07-31T23:25:45.101Z,3.17
2018-07-31T23:28:14.521Z,3.40
2018-07-31T23:30:43.879Z,3.53
2018-07-31T23:33:13.374Z,4.43
2018-07-31T23:35:43.514Z,4.10
2018-07-31T23:38:12.901Z,2.90
2018-07-31T23:40:42.353Z,3.40
2018-07-31T23:43:11.861Z,3.43
2018-07-31T23:45:41.220Z,3.50
2018-07-31T23:48:11.477Z,3.83
2018-07-31T23:50:40.854Z,3.47
2018-07-31T23:53:11.569Z,2.83
2018-07-31T23:55:41.269Z,3.83
2018-07-31T23:58:10.806Z,3.23
